• Join FlightAware (Why Join?)
  • Login
  • US Flag 
06:00AM EDT


 

Airport Tracker/Info


-or-


 

Live Flight TrackerFlight Track Log ✈ EGF4086 ✈ 12-Apr-2013 ✈ KROC - KORD

Flight Track Log - Related Links

Times and Time Zones

All times are in EDT time to prevent confusion due to time zone crossing. See the EGF4086 flight status page for this flight to view local times or setup timezone preferences in your user account.

Time Position Orientation Groundspeed Altitude Reporting Facility
EDT Latitude Longitude Course Direction KTS MPH feet Rate Location/Type
04:48PM 43.0975 -77.6972 281° West 156 180 1,600  Level Cleveland Center
04:49PM 43.0789 -77.7094 206° Southwest 158 182 2,600 1,920 Climbing Cleveland Center
04:50PM 43.0344 -77.7628 221° Southwest 183 211 5,200 2,040 Climbing Cleveland Center
04:51PM 43.1491 -78.0092 280° West  Level FlightAware Approximate
04:51PM 43.0236 -77.8369 259° West 178 205 7,500  Level Cleveland Center
04:52PM 43.1591 -78.1244 278° West  Level FlightAware Approximate
04:52PM 43.0111 -77.9172 258° West 200 230 9,400  Level Cleveland Center
04:53PM 43.1723 -78.2390 281° West  Level FlightAware Approximate
04:53PM 42.9964 -78.0114 258° West 231 266 10,600  Level Cleveland Center
04:54PM 43.1886 -78.3530 281° West  Level FlightAware Approximate
04:54PM 42.9989 -78.1219 272° West 271 312 12,100  Level Cleveland Center
04:55PM 43.0033 -78.2383 273° West 296 341 13,800 1,560 Climbing Cleveland Center
04:56PM 43.0056 -78.3544 272° West 306 352 15,300 1,500 Climbing Cleveland Center
04:57PM 43.0100 -78.4736 273° West 311 358 16,800 2,100 Climbing Cleveland Center
04:58PM 43.0119 -78.5872 271° West 311 358 19,500 2,520 Climbing Cleveland Center
04:59PM 43.0139 -78.6950 271° West 295 339 21,900 2,100 Climbing Cleveland Center
05:00PM 43.0175 -78.7944 273° West 273 314 23,700 1,440 Climbing Cleveland Center
05:01PM 43.0169 -78.8994 270° West 273 314 24,800 1,140 Climbing Cleveland Center
05:02PM 43.0167 -78.9333 269° West 280 322 25,300 1,140 Climbing Toronto Center
05:03PM 43.0167 -79.0333 270° West 300 345 26,400 1,080 Climbing Toronto Center
05:04PM 43.0167 -79.1833 270° West 310 357 27,500 1,020 Climbing Toronto Center
05:05PM 43.0167 -79.2833 270° West 310 357 28,500 1,020 Climbing Toronto Center
05:06PM 43.0167 -79.4000 270° West 310 357 29,600 1,020 Climbing Toronto Center
05:07PM 43.0167 -79.5167 270° West 320 368 30,600 960 Climbing Toronto Center
05:08PM 43.0167 -79.6500 270° West 320 368 31,600 660 Climbing Toronto Center
05:09PM 43.0167 -79.7667 270° West 320 368 32,000 180 Climbing Toronto Center
05:10PM 43.0167 -79.9000 270° West 350 403 32,000  Level Toronto Center
05:11PM 43.0167 -80.0500 270° West 370 426 32,000  Level Toronto Center
05:12PM 43.0333 -80.1833 280° West 370 426 32,000  Level Toronto Center
05:13PM 43.0333 -80.3333 270° West 380 437 32,000  Level Toronto Center
05:14PM 43.0333 -80.4833 270° West 380 437 32,000  Level Toronto Center
05:15PM 43.0333 -80.6167 270° West 380 437 32,000  Level Toronto Center
05:16PM 43.0333 -80.7667 270° West 390 449 32,000  Level Toronto Center
05:17PM 43.0167 -80.9167 261° West 390 449 32,000  Level Toronto Center
05:18PM 43.0167 -81.0500 270° West 390 449 32,000  Level Toronto Center
05:19PM 43.0167 -81.2000 270° West 390 449 32,000  Level Toronto Center
05:20PM 43.0167 -81.3667 270° West 390 449 32,000  Level Toronto Center
05:21PM 43.0167 -81.5000 270° West 390 449 32,000  Level Toronto Center
05:22PM 43.0167 -81.6667 270° West 390 449 32,000  Level Toronto Center
05:23PM 43.0167 -81.8000 270° West 390 449 32,000  Level Toronto Center
05:24PM 43.0000 -81.9667 262° West 390 449 32,000  Level Toronto Center
05:25PM 43.0000 -82.1000 270° West 400 460 32,000  Level Toronto Center
05:26PM 43.0000 -82.2500 270° West 400 460 32,000  Level Toronto Center
05:27PM 43.0000 -82.4167 270° West 400 460 32,000  Level Toronto Center
05:28PM 43.0000 -82.5667 270° West 400 460 32,000  Level Toronto Center
05:28PM 43.0019 -82.6753 271° West 403 464 32,000  Level Cleveland Center
05:29PM 42.9989 -82.8286 268° West 403 464 32,000  Level Cleveland Center
05:30PM 42.9939 -82.9817 267° West 403 464 32,000  Level Cleveland Center
05:31PM 42.9886 -83.1292 267° West 403 464 32,000  Level Cleveland Center
05:32PM 42.9831 -83.2822 267° West 403 464 32,000  Level Cleveland Center
05:33PM 42.9772 -83.4381 267° West 403 464 32,000  Level Cleveland Center
05:34PM 42.9711 -83.5939 267° West 408 470 32,000  Level Cleveland Center
05:35PM 42.9672 -83.7411 268° West 408 470 32,000  Level Cleveland Center
05:36PM 42.9500 -83.9078 262° West 408 470 32,000  Level Cleveland Center
05:37PM 42.9378 -84.0433 263° West 401 461 32,000  Level Cleveland Center
05:39PM 42.9136 -84.2864 262° West 399 459 32,000  Level Chicago Center
05:40PM 42.8992 -84.4361 263° West 398 458 32,000  Level Chicago Center
05:41PM 42.8839 -84.5867 262° West 401 461 32,000  Level Chicago Center
05:42PM 42.8683 -84.7381 262° West 404 465 32,000  Level Chicago Center
05:43PM 42.8522 -84.8911 262° West 407 468 32,000  Level Chicago Center
05:44PM 42.8367 -85.0417 262° West 404 465 32,000  Level Chicago Center
05:45PM 42.8164 -85.2250 261° West 406 467 32,000  Level Chicago Center
05:46PM 42.7992 -85.3789 261° West 409 471 32,000 -540 Level Chicago Center
05:47PM 42.7825 -85.5269 261° West 398 458 30,900 -1,680 Descending Chicago Center
05:48PM 42.7567 -85.6719 256° West 394 453 28,600 -2,280 Descending Chicago Center
05:49PM 42.7283 -85.8197 255° West 400 460 26,300 -2,220 Descending Chicago Center
05:50PM 42.7022 -85.9678 257° West 400 460 24,100 -2,220 Descending Chicago Center
05:51PM 42.6764 -86.1108 256° West 390 449 21,800 -1,980 Descending Chicago Center
05:52PM 42.6458 -86.2742 256° West 373 429 20,000 -900 Descending Chicago Center
05:53PM 42.6194 -86.4097 255° West 371 427 20,000 -240 Level Chicago Center
05:55PM 42.5939 -86.5481 256° West 377 434 19,600 -1,740 Descending Chicago Center
05:56PM 42.5686 -86.6806 256° West 367 422 16,500 -2,940 Descending Chicago Center
05:57PM 42.5403 -86.8058 253° West 352 405 13,600 -2,460 Descending Chicago Center
05:58PM 42.5075 -86.9256 250° West 340 391 11,500 -1,740 Descending Chicago Center
05:59PM 42.4756 -87.0411 249° West 331 381 10,100 -900 Descending Chicago Center
06:00PM 42.4389 -87.1639 248° West 287 330 9,700 -540 Descending Chicago Center
06:01PM 42.3886 -87.2147 217° Southwest 268 308 9,000 -360 Descending Chicago Center
06:02PM 42.3042 -87.2167 181° South 277 319 9,000 -420 Level Chicago Center
06:03PM 42.2272 -87.2192 181° South 277 319 8,200 -900 Descending Chicago Center
06:04PM 42.1517 -87.2231 182° South 273 314 7,200 -600 Descending Chicago Center
06:05PM 42.0800 -87.2419 191° South 264 304 7,000 -120 Descending Chicago Center
06:06PM 42.0206 -87.2842 208° Southwest 261 300 7,000  Level Chicago Center
06:07PM 41.9881 -87.3803 246° West 244 281 7,000  Level Chicago Center
06:07PM 41.9833 -87.4000 252° West 216 249 7,000 -120 Level Chicago TRACON
06:08PM 41.9833 -87.4833 270° West 175 201 6,900 -480 Descending Chicago TRACON
06:09PM 41.9833 -87.5333 270° West 172 198 6,100 -960 Descending Chicago TRACON
06:10PM 41.9833 -87.6000 270° West 162 186 5,100 -1,020 Descending Chicago TRACON
06:11PM 41.9833 -87.6667 270° West 175 201 4,100 -1,020 Descending Chicago TRACON